sensor_id;sensor_type;location;lat;lon;timestamp;pressure;altitude;pressure_sealevel;temperature;humidity
63663;BME280;49815;51.618;0.336;2022-12-10T00:00:30;100154.81;;;-1.48;48.66
63663;BME280;49815;51.618;0.336;2022-12-10T00:02:54;100155.85;;;-0.85;48.26
63663;BME280;49815;51.618;0.336;2022-12-10T00:05:20;100154.29;;;-0.85;47.99
63663;BME280;49815;51.618;0.336;2022-12-10T00:07:47;100158.25;;;-1.08;48.33
63663;BME280;49815;51.618;0.336;2022-12-10T00:10:12;100162.30;;;-1.63;48.92
63663;BME280;49815;51.618;0.336;2022-12-10T00:12:36;100163.33;;;-0.99;49.51
63663;BME280;49815;51.618;0.336;2022-12-10T00:15:02;100162.39;;;-1.18;49.69
63663;BME280;49815;51.618;0.336;2022-12-10T00:17:26;100162.23;;;-1.11;50.27
63663;BME280;49815;51.618;0.336;2022-12-10T00:19:52;100163.94;;;-0.88;49.82
63663;BME280;49815;51.618;0.336;2022-12-10T00:22:19;100163.27;;;-1.24;49.96
63663;BME280;49815;51.618;0.336;2022-12-10T00:24:43;100161.41;;;-1.39;50.15
63663;BME280;49815;51.618;0.336;2022-12-10T00:27:08;100162.21;;;-1.49;50.52
63663;BME280;49815;51.618;0.336;2022-12-10T00:29:34;100163.35;;;-0.84;50.04
63663;BME280;49815;51.618;0.336;2022-12-10T00:31:59;100162.49;;;-0.72;49.92
63663;BME280;49815;51.618;0.336;2022-12-10T00:34:24;100162.14;;;-1.30;50.10
63663;BME280;49815;51.618;0.336;2022-12-10T00:36:51;100163.29;;;-1.20;49.86
63663;BME280;49815;51.618;0.336;2022-12-10T00:39:19;100166.98;;;-1.44;50.14
63663;BME280;49815;51.618;0.336;2022-12-10T00:41:41;100168.40;;;-1.02;49.73
63663;BME280;49815;51.618;0.336;2022-12-10T00:44:07;100168.49;;;-1.09;49.75
63663;BME280;49815;51.618;0.336;2022-12-10T00:46:32;100169.02;;;-0.62;49.72
63663;BME280;49815;51.618;0.336;2022-12-10T00:48:58;100169.74;;;-0.96;49.32
63663;BME280;49815;51.618;0.336;2022-12-10T00:51:23;100168.92;;;-0.96;49.17
63663;BME280;49815;51.618;0.336;2022-12-10T00:53:48;100166.16;;;-0.95;49.40
63663;BME280;49815;51.618;0.336;2022-12-10T00:56:14;100163.81;;;-0.49;48.93
63663;BME280;49815;51.618;0.336;2022-12-10T00:58:38;100163.89;;;-1.13;48.79
63663;BME280;49815;51.618;0.336;2022-12-10T01:01:07;100165.58;;;-1.27;48.59
63663;BME280;49815;51.618;0.336;2022-12-10T01:03:28;100169.22;;;-1.39;48.51
63663;BME280;49815;51.618;0.336;2022-12-10T01:05:53;100169.89;;;-1.09;48.26
63663;BME280;49815;51.618;0.336;2022-12-10T01:08:19;100173.34;;;-1.16;48.53
63663;BME280;49815;51.618;0.336;2022-12-10T01:10:45;100176.97;;;-1.07;48.80
63663;BME280;49815;51.618;0.336;2022-12-10T01:13:10;100178.04;;;-0.78;48.67
63663;BME280;49815;51.618;0.336;2022-12-10T01:15:37;100178.18;;;-1.21;48.52
63663;BME280;49815;51.618;0.336;2022-12-10T01:18:00;100183.64;;;-0.99;48.49
63663;BME280;49815;51.618;0.336;2022-12-10T01:20:25;100184.02;;;-1.56;48.51
63663;BME280;49815;51.618;0.336;2022-12-10T01:22:52;100184.28;;;-1.52;48.30
63663;BME280;49815;51.618;0.336;2022-12-10T01:25:17;100185.10;;;-1.57;49.34
63663;BME280;49815;51.618;0.336;2022-12-10T01:27:43;100184.79;;;-1.15;49.38
63663;BME280;49815;51.618;0.336;2022-12-10T01:30:09;100187.74;;;-1.51;49.50
63663;BME280;49815;51.618;0.336;2022-12-10T01:32:34;100183.64;;;-1.69;48.74
63663;BME280;49815;51.618;0.336;2022-12-10T01:34:59;100181.12;;;-1.59;49.24
63663;BME280;49815;51.618;0.336;2022-12-10T01:37:25;100182.35;;;-1.66;49.70
63663;BME280;49815;51.618;0.336;2022-12-10T01:39:51;100182.05;;;-1.60;49.92
63663;BME280;49815;51.618;0.336;2022-12-10T01:42:15;100186.46;;;-1.22;49.90
63663;BME280;49815;51.618;0.336;2022-12-10T01:44:59;100187.67;;;-1.65;49.28
63663;BME280;49815;51.618;0.336;2022-12-10T01:47:06;100190.29;;;-1.13;49.30
63663;BME280;49815;51.618;0.336;2022-12-10T01:49:33;100189.54;;;-1.04;49.25
63663;BME280;49815;51.618;0.336;2022-12-10T01:51:57;100190.83;;;-1.10;49.11
63663;BME280;49815;51.618;0.336;2022-12-10T01:54:27;100183.65;;;-2.00;49.41
63663;BME280;49815;51.618;0.336;2022-12-10T01:56:52;100187.52;;;-1.26;49.41
63663;BME280;49815;51.618;0.336;2022-12-10T01:59:14;100189.88;;;-1.35;49.44
63663;BME280;49815;51.618;0.336;2022-12-10T02:01:45;100190.69;;;-0.94;49.09
63663;BME280;49815;51.618;0.336;2022-12-10T02:04:18;100186.59;;;-1.23;49.11
63663;BME280;49815;51.618;0.336;2022-12-10T02:06:41;100181.92;;;-1.28;48.69
63663;BME280;49815;51.618;0.336;2022-12-10T02:09:04;100180.05;;;-1.25;48.68
63663;BME280;49815;51.618;0.336;2022-12-10T02:11:28;100180.79;;;-1.01;48.87
63663;BME280;49815;51.618;0.336;2022-12-10T02:13:51;100181.64;;;-1.53;49.92
63663;BME280;49815;51.618;0.336;2022-12-10T02:16:15;100181.54;;;-1.28;49.79
63663;BME280;49815;51.618;0.336;2022-12-10T02:18:39;100184.67;;;-1.13;49.88
63663;BME280;49815;51.618;0.336;2022-12-10T02:21:07;100182.82;;;-1.33;49.47
63663;BME280;49815;51.618;0.336;2022-12-10T02:23:33;100177.70;;;-1.32;49.63
63663;BME280;49815;51.618;0.336;2022-12-10T02:26:00;100182.16;;;-1.35;49.15
63663;BME280;49815;51.618;0.336;2022-12-10T02:28:29;100180.69;;;-1.27;49.29
63663;BME280;49815;51.618;0.336;2022-12-10T02:30:47;100185.39;;;-1.77;49.73
63663;BME280;49815;51.618;0.336;2022-12-10T02:33:12;100191.04;;;-1.41;49.34
63663;BME280;49815;51.618;0.336;2022-12-10T02:35:38;100190.59;;;-1.91;49.65
63663;BME280;49815;51.618;0.336;2022-12-10T02:38:05;100187.92;;;-1.56;50.08
63663;BME280;49815;51.618;0.336;2022-12-10T02:40:31;100193.37;;;-1.67;50.17
63663;BME280;49815;51.618;0.336;2022-12-10T02:42:52;100192.15;;;-1.58;50.65
63663;BME280;49815;51.618;0.336;2022-12-10T02:45:20;100192.85;;;-1.64;51.30
63663;BME280;49815;51.618;0.336;2022-12-10T02:47:43;100192.36;;;-1.29;50.66
63663;BME280;49815;51.618;0.336;2022-12-10T02:50:10;100189.48;;;-1.80;50.96
63663;BME280;49815;51.618;0.336;2022-12-10T02:52:33;100187.70;;;-1.25;50.70
63663;BME280;49815;51.618;0.336;2022-12-10T02:55:00;100186.23;;;-1.11;50.72
63663;BME280;49815;51.618;0.336;2022-12-10T02:57:30;100185.55;;;-1.72;51.00
63663;BME280;49815;51.618;0.336;2022-12-10T03:00:01;100188.36;;;-1.09;50.83
63663;BME280;49815;51.618;0.336;2022-12-10T03:02:19;100189.99;;;-1.49;51.58
63663;BME280;49815;51.618;0.336;2022-12-10T03:04:46;100192.95;;;-2.52;53.43
63663;BME280;49815;51.618;0.336;2022-12-10T03:07:08;100190.77;;;-1.53;52.03
63663;BME280;49815;51.618;0.336;2022-12-10T03:09:35;100185.63;;;-1.91;51.49
63663;BME280;49815;51.618;0.336;2022-12-10T03:11:59;100186.69;;;-1.71;51.53
63663;BME280;49815;51.618;0.336;2022-12-10T03:14:25;100187.86;;;-1.51;51.40
63663;BME280;49815;51.618;0.336;2022-12-10T03:16:54;100192.98;;;-1.48;51.62
63663;BME280;49815;51.618;0.336;2022-12-10T03:19:15;100188.81;;;-1.51;51.83
63663;BME280;49815;51.618;0.336;2022-12-10T03:21:40;100185.24;;;-1.76;51.82
63663;BME280;49815;51.618;0.336;2022-12-10T03:24:04;100180.39;;;-1.82;51.56
63663;BME280;49815;51.618;0.336;2022-12-10T03:26:28;100179.29;;;-1.59;51.72
63663;BME280;49815;51.618;0.336;2022-12-10T03:28:57;100180.33;;;-1.14;51.12
63663;BME280;49815;51.618;0.336;2022-12-10T03:31:20;100180.76;;;-1.76;51.57
63663;BME280;49815;51.618;0.336;2022-12-10T03:33:45;100179.58;;;-1.48;51.69
63663;BME280;49815;51.618;0.336;2022-12-10T03:36:11;100178.04;;;-1.22;51.09
63663;BME280;49815;51.618;0.336;2022-12-10T03:38:35;100176.46;;;-1.35;50.95
63663;BME280;49815;51.618;0.336;2022-12-10T03:41:00;100171.58;;;-1.35;50.94
63663;BME280;49815;51.618;0.336;2022-12-10T03:43:27;100167.13;;;-1.59;50.93
63663;BME280;49815;51.618;0.336;2022-12-10T03:45:52;100168.50;;;-2.12;51.92
63663;BME280;49815;51.618;0.336;2022-12-10T03:48:17;100167.64;;;-1.60;51.37
63663;BME280;49815;51.618;0.336;2022-12-10T03:50:43;100164.97;;;-1.59;51.20
63663;BME280;49815;51.618;0.336;2022-12-10T03:53:09;100164.71;;;-1.57;51.72
63663;BME280;49815;51.618;0.336;2022-12-10T03:55:34;100164.85;;;-1.33;51.23
63663;BME280;49815;51.618;0.336;2022-12-10T03:57:59;100165.28;;;-1.88;50.95
63663;BME280;49815;51.618;0.336;2022-12-10T04:00:25;100167.51;;;-2.32;50.86
63663;BME280;49815;51.618;0.336;2022-12-10T04:02:53;100160.89;;;-1.67;50.70
63663;BME280;49815;51.618;0.336;2022-12-10T04:05:20;100162.70;;;-1.73;51.85
63663;BME280;49815;51.618;0.336;2022-12-10T04:07:42;100157.24;;;-1.43;51.48
63663;BME280;49815;51.618;0.336;2022-12-10T04:10:06;100157.45;;;-1.32;51.40
63663;BME280;49815;51.618;0.336;2022-12-10T04:12:33;100154.80;;;-1.42;51.01
63663;BME280;49815;51.618;0.336;2022-12-10T04:14:57;100153.35;;;-1.22;50.94
63663;BME280;49815;51.618;0.336;2022-12-10T04:17:23;100153.90;;;-1.19;50.72
63663;BME280;49815;51.618;0.336;2022-12-10T04:19:49;100155.06;;;-1.38;50.63
63663;BME280;49815;51.618;0.336;2022-12-10T04:22:14;100153.87;;;-1.82;51.49
63663;BME280;49815;51.618;0.336;2022-12-10T04:24:39;100153.52;;;-1.76;50.87
63663;BME280;49815;51.618;0.336;2022-12-10T04:27:06;100156.73;;;-1.50;50.98
63663;BME280;49815;51.618;0.336;2022-12-10T04:29:29;100156.74;;;-1.31;51.23
63663;BME280;49815;51.618;0.336;2022-12-10T04:31:56;100158.17;;;-2.05;51.95
63663;BME280;49815;51.618;0.336;2022-12-10T04:34:21;100160.11;;;-1.71;51.85
63663;BME280;49815;51.618;0.336;2022-12-10T04:36:45;100158.43;;;-1.93;51.82
63663;BME280;49815;51.618;0.336;2022-12-10T04:39:11;100158.51;;;-1.58;52.04
63663;BME280;49815;51.618;0.336;2022-12-10T04:41:36;100161.08;;;-1.52;51.61
63663;BME280;49815;51.618;0.336;2022-12-10T04:44:01;100166.98;;;-1.60;51.93
63663;BME280;49815;51.618;0.336;2022-12-10T04:46:28;100164.77;;;-1.49;51.82
63663;BME280;49815;51.618;0.336;2022-12-10T04:48:52;100169.15;;;-1.55;51.70
63663;BME280;49815;51.618;0.336;2022-12-10T04:51:18;100170.40;;;-2.12;52.06
63663;BME280;49815;51.618;0.336;2022-12-10T04:53:43;100169.40;;;-1.59;51.62
63663;BME280;49815;51.618;0.336;2022-12-10T04:56:08;100170.99;;;-1.65;51.99
63663;BME280;49815;51.618;0.336;2022-12-10T04:58:36;100171.95;;;-2.00;52.42
63663;BME280;49815;51.618;0.336;2022-12-10T05:01:02;100167.58;;;-1.97;52.98
63663;BME280;49815;51.618;0.336;2022-12-10T05:03:25;100165.36;;;-1.54;51.87
63663;BME280;49815;51.618;0.336;2022-12-10T05:05:52;100165.45;;;-1.81;51.81
63663;BME280;49815;51.618;0.336;2022-12-10T05:08:17;100166.83;;;-1.53;52.03
63663;BME280;49815;51.618;0.336;2022-12-10T05:10:41;100164.04;;;-1.40;51.74
63663;BME280;49815;51.618;0.336;2022-12-10T05:13:07;100161.57;;;-1.90;52.36
63663;BME280;49815;51.618;0.336;2022-12-10T05:15:32;100161.59;;;-1.50;52.20
63663;BME280;49815;51.618;0.336;2022-12-10T05:17:58;100160.83;;;-1.77;52.22
63663;BME280;49815;51.618;0.336;2022-12-10T05:20:23;100161.00;;;-1.86;52.11
63663;BME280;49815;51.618;0.336;2022-12-10T05:22:48;100163.11;;;-1.80;52.11
63663;BME280;49815;51.618;0.336;2022-12-10T05:25:13;100163.24;;;-1.77;52.33
63663;BME280;49815;51.618;0.336;2022-12-10T05:27:39;100165.12;;;-1.69;52.28
63663;BME280;49815;51.618;0.336;2022-12-10T05:30:08;100167.70;;;-1.74;52.34
63663;BME280;49815;51.618;0.336;2022-12-10T05:32:31;100168.35;;;-2.11;52.69
63663;BME280;49815;51.618;0.336;2022-12-10T05:34:57;100169.58;;;-1.84;52.25
63663;BME280;49815;51.618;0.336;2022-12-10T05:37:21;100169.00;;;-1.94;52.51
63663;BME280;49815;51.618;0.336;2022-12-10T05:39:48;100168.92;;;-2.30;52.45
63663;BME280;49815;51.618;0.336;2022-12-10T05:42:12;100168.57;;;-1.57;51.61
63663;BME280;49815;51.618;0.336;2022-12-10T05:44:37;100169.33;;;-1.96;51.81
63663;BME280;49815;51.618;0.336;2022-12-10T05:47:03;100164.52;;;-1.30;51.86
63663;BME280;49815;51.618;0.336;2022-12-10T05:49:28;100165.70;;;-2.21;51.95
63663;BME280;49815;51.618;0.336;2022-12-10T05:51:55;100158.99;;;-1.53;51.70
63663;BME280;49815;51.618;0.336;2022-12-10T05:54:23;100153.48;;;-1.74;51.95
63663;BME280;49815;51.618;0.336;2022-12-10T05:56:44;100152.89;;;-2.29;51.63
63663;BME280;49815;51.618;0.336;2022-12-10T05:59:10;100154.18;;;-1.55;51.63
63663;BME280;49815;51.618;0.336;2022-12-10T06:01:36;100156.69;;;-1.38;51.37
63663;BME280;49815;51.618;0.336;2022-12-10T06:04:03;100161.01;;;-1.47;51.78
63663;BME280;49815;51.618;0.336;2022-12-10T06:06:30;100163.00;;;-1.61;51.85
63663;BME280;49815;51.618;0.336;2022-12-10T06:08:53;100164.24;;;-2.35;51.98
63663;BME280;49815;51.618;0.336;2022-12-10T06:11:18;100165.57;;;-2.04;52.55
63663;BME280;49815;51.618;0.336;2022-12-10T06:13:43;100165.12;;;-1.67;51.91
63663;BME280;49815;51.618;0.336;2022-12-10T06:16:12;100166.11;;;-1.37;51.60
63663;BME280;49815;51.618;0.336;2022-12-10T06:18:34;100164.89;;;-1.97;51.38
63663;BME280;49815;51.618;0.336;2022-12-10T06:20:58;100165.03;;;-1.50;51.15
63663;BME280;49815;51.618;0.336;2022-12-10T06:23:24;100166.58;;;-1.54;51.35
63663;BME280;49815;51.618;0.336;2022-12-10T06:25:49;100171.94;;;-1.90;52.07
63663;BME280;49815;51.618;0.336;2022-12-10T06:28:15;100174.43;;;-1.73;51.99
63663;BME280;49815;51.618;0.336;2022-12-10T06:30:40;100178.01;;;-2.03;51.59
63663;BME280;49815;51.618;0.336;2022-12-10T06:33:07;100176.04;;;-2.12;51.38
63663;BME280;49815;51.618;0.336;2022-12-10T06:35:31;100174.97;;;-1.76;51.88
63663;BME280;49815;51.618;0.336;2022-12-10T06:37:57;100176.47;;;-2.01;51.60
63663;BME280;49815;51.618;0.336;2022-12-10T06:40:22;100176.93;;;-1.84;51.89
63663;BME280;49815;51.618;0.336;2022-12-10T06:42:48;100179.94;;;-2.04;52.29
63663;BME280;49815;51.618;0.336;2022-12-10T06:45:14;100180.57;;;-2.40;51.78
63663;BME280;49815;51.618;0.336;2022-12-10T06:47:39;100176.52;;;-1.81;51.48
63663;BME280;49815;51.618;0.336;2022-12-10T06:50:04;100180.00;;;-2.05;51.95
63663;BME280;49815;51.618;0.336;2022-12-10T06:52:28;100185.11;;;-2.89;52.66
63663;BME280;49815;51.618;0.336;2022-12-10T06:54:57;100180.79;;;-2.48;53.14
63663;BME280;49815;51.618;0.336;2022-12-10T06:57:21;100177.90;;;-2.01;52.30
63663;BME280;49815;51.618;0.336;2022-12-10T06:59:46;100179.83;;;-2.48;53.09
63663;BME280;49815;51.618;0.336;2022-12-10T07:02:10;100178.68;;;-2.45;52.75
63663;BME280;49815;51.618;0.336;2022-12-10T07:04:37;100181.74;;;-2.68;53.20
63663;BME280;49815;51.618;0.336;2022-12-10T07:07:01;100178.09;;;-2.19;52.77
63663;BME280;49815;51.618;0.336;2022-12-10T07:09:27;100180.25;;;-2.39;52.98
63663;BME280;49815;51.618;0.336;2022-12-10T07:11:54;100184.95;;;-2.65;52.82
63663;BME280;49815;51.618;0.336;2022-12-10T07:14:21;100186.66;;;-2.18;52.41
63663;BME280;49815;51.618;0.336;2022-12-10T07:16:43;100185.95;;;-1.90;52.11
63663;BME280;49815;51.618;0.336;2022-12-10T07:19:12;100187.82;;;-2.58;52.44
63663;BME280;49815;51.618;0.336;2022-12-10T07:21:36;100187.52;;;-2.27;51.89
63663;BME280;49815;51.618;0.336;2022-12-10T07:24:03;100184.46;;;-1.95;52.15
63663;BME280;49815;51.618;0.336;2022-12-10T07:26:27;100183.75;;;-2.13;52.28
63663;BME280;49815;51.618;0.336;2022-12-10T07:28:51;100181.61;;;-2.00;52.24
63663;BME280;49815;51.618;0.336;2022-12-10T07:31:16;100185.54;;;-1.89;51.77
63663;BME280;49815;51.618;0.336;2022-12-10T07:33:42;100184.30;;;-2.16;51.68
63663;BME280;49815;51.618;0.336;2022-12-10T07:36:09;100186.18;;;-1.93;51.88
63663;BME280;49815;51.618;0.336;2022-12-10T07:38:33;100184.89;;;-1.77;51.47
63663;BME280;49815;51.618;0.336;2022-12-10T07:41:01;100185.85;;;-2.09;52.24
63663;BME280;49815;51.618;0.336;2022-12-10T07:43:23;100188.30;;;-2.50;52.23
63663;BME280;49815;51.618;0.336;2022-12-10T07:45:49;100190.36;;;-2.40;52.36
63663;BME280;49815;51.618;0.336;2022-12-10T07:48:14;100186.29;;;-2.02;52.28
63663;BME280;49815;51.618;0.336;2022-12-10T07:50:41;100190.95;;;-2.55;52.42
63663;BME280;49815;51.618;0.336;2022-12-10T07:53:05;100194.18;;;-1.72;51.94
63663;BME280;49815;51.618;0.336;2022-12-10T07:55:31;100201.95;;;-1.84;52.15
63663;BME280;49815;51.618;0.336;2022-12-10T07:57:55;100206.79;;;-2.54;52.08
63663;BME280;49815;51.618;0.336;2022-12-10T08:00:23;100204.94;;;-1.62;51.66
63663;BME280;49815;51.618;0.336;2022-12-10T08:02:46;100207.01;;;-1.82;51.74
63663;BME280;49815;51.618;0.336;2022-12-10T08:05:12;100207.76;;;-2.09;51.74
63663;BME280;49815;51.618;0.336;2022-12-10T08:07:39;100206.95;;;-1.69;51.44
63663;BME280;49815;51.618;0.336;2022-12-10T08:10:05;100211.36;;;-1.85;51.67
63663;BME280;49815;51.618;0.336;2022-12-10T08:12:30;100208.68;;;-1.78;51.72
63663;BME280;49815;51.618;0.336;2022-12-10T08:14:55;100209.44;;;-1.60;51.51
63663;BME280;49815;51.618;0.336;2022-12-10T08:17:20;100218.74;;;-1.99;51.84
63663;BME280;49815;51.618;0.336;2022-12-10T08:19:46;100218.11;;;-1.71;51.49
63663;BME280;49815;51.618;0.336;2022-12-10T08:22:13;100218.09;;;-1.77;51.87
63663;BME280;49815;51.618;0.336;2022-12-10T08:24:35;100219.20;;;-2.36;51.57
63663;BME280;49815;51.618;0.336;2022-12-10T08:27:01;100220.74;;;-1.47;51.54
63663;BME280;49815;51.618;0.336;2022-12-10T08:29:28;100222.62;;;-2.01;51.62
63663;BME280;49815;51.618;0.336;2022-12-10T08:31:52;100226.50;;;-2.05;51.64
63663;BME280;49815;51.618;0.336;2022-12-10T08:34:19;100230.13;;;-1.43;51.64
63663;BME280;49815;51.618;0.336;2022-12-10T08:36:43;100229.04;;;-1.97;51.76
63663;BME280;49815;51.618;0.336;2022-12-10T08:39:08;100232.57;;;-1.58;51.16
63663;BME280;49815;51.618;0.336;2022-12-10T08:41:33;100235.77;;;-1.27;50.99
63663;BME280;49815;51.618;0.336;2022-12-10T08:44:01;100237.55;;;-1.33;51.30
63663;BME280;49815;51.618;0.336;2022-12-10T08:46:25;100241.31;;;-1.32;51.38
63663;BME280;49815;51.618;0.336;2022-12-10T08:48:50;100243.93;;;-1.31;50.95
63663;BME280;49815;51.618;0.336;2022-12-10T08:51:19;100241.46;;;-0.66;50.40
63663;BME280;49815;51.618;0.336;2022-12-10T08:53:41;100240.91;;;-0.78;50.77
63663;BME280;49815;51.618;0.336;2022-12-10T08:56:08;100235.63;;;-0.76;50.59
63663;BME280;49815;51.618;0.336;2022-12-10T08:58:34;100237.07;;;-0.51;50.23
63663;BME280;49815;51.618;0.336;2022-12-10T09:00:59;100233.99;;;-1.00;50.88
63663;BME280;49815;51.618;0.336;2022-12-10T09:03:23;100238.52;;;-0.96;50.89
63663;BME280;49815;51.618;0.336;2022-12-10T09:05:49;100240.43;;;-0.84;50.69
63663;BME280;49815;51.618;0.336;2022-12-10T09:08:16;100240.74;;;-1.04;50.64
63663;BME280;49815;51.618;0.336;2022-12-10T09:10:42;100237.64;;;-0.59;50.35
63663;BME280;49815;51.618;0.336;2022-12-10T09:13:06;100238.26;;;-0.28;50.30
63663;BME280;49815;51.618;0.336;2022-12-10T09:15:30;100236.72;;;-1.53;51.13
63663;BME280;49815;51.618;0.336;2022-12-10T09:20:22;100240.76;;;-0.64;50.28
63663;BME280;49815;51.618;0.336;2022-12-10T09:22:47;100239.93;;;-0.56;50.06
63663;BME280;49815;51.618;0.336;2022-12-10T09:25:12;100240.52;;;-0.45;49.82
63663;BME280;49815;51.618;0.336;2022-12-10T09:27:39;100238.83;;;-0.06;50.01
63663;BME280;49815;51.618;0.336;2022-12-10T09:30:05;100236.52;;;-0.53;49.98
63663;BME280;49815;51.618;0.336;2022-12-10T09:32:29;100235.52;;;-0.05;49.52
63663;BME280;49815;51.618;0.336;2022-12-10T09:34:55;100234.06;;;-0.41;49.85
63663;BME280;49815;51.618;0.336;2022-12-10T09:37:21;100234.04;;;0.22;49.27
63663;BME280;49815;51.618;0.336;2022-12-10T09:39:45;100234.19;;;-0.04;49.53
63663;BME280;49815;51.618;0.336;2022-12-10T09:42:28;100233.82;;;0.51;49.58
63663;BME280;49815;51.618;0.336;2022-12-10T09:44:44;100237.02;;;0.19;49.58
63663;BME280;49815;51.618;0.336;2022-12-10T09:47:04;100239.67;;;-0.04;49.28
63663;BME280;49815;51.618;0.336;2022-12-10T09:51:58;100238.40;;;-0.32;49.13
63663;BME280;49815;51.618;0.336;2022-12-10T09:54:22;100239.11;;;0.53;48.89
63663;BME280;49815;51.618;0.336;2022-12-10T09:59:17;100248.75;;;-0.03;49.48
63663;BME280;49815;51.618;0.336;2022-12-10T10:01:36;100243.04;;;0.13;48.93
63663;BME280;49815;51.618;0.336;2022-12-10T10:04:00;100244.91;;;-0.02;48.93
63663;BME280;49815;51.618;0.336;2022-12-10T10:06:28;100245.34;;;0.42;49.21
63663;BME280;49815;51.618;0.336;2022-12-10T10:08:53;100249.55;;;-0.06;49.17
63663;BME280;49815;51.618;0.336;2022-12-10T10:11:18;100251.49;;;0.15;49.36
63663;BME280;49815;51.618;0.336;2022-12-10T10:13:51;100254.53;;;-0.53;49.26
63663;BME280;49815;51.618;0.336;2022-12-10T10:16:20;100250.12;;;0.25;49.09
63663;BME280;49815;51.618;0.336;2022-12-10T10:18:37;100250.46;;;0.10;49.04
63663;BME280;49815;51.618;0.336;2022-12-10T10:21:00;100246.72;;;0.30;49.10
63663;BME280;49815;51.618;0.336;2022-12-10T10:23:25;100246.64;;;0.51;48.68
63663;BME280;49815;51.618;0.336;2022-12-10T10:25:51;100249.43;;;-0.16;48.83
63663;BME280;49815;51.618;0.336;2022-12-10T10:28:21;100247.79;;;0.77;48.47
63663;BME280;49815;51.618;0.336;2022-12-10T10:30:43;100247.32;;;0.90;48.81
63663;BME280;49815;51.618;0.336;2022-12-10T10:33:11;100248.90;;;0.75;49.01
63663;BME280;49815;51.618;0.336;2022-12-10T10:35:33;100249.84;;;0.77;49.63
63663;BME280;49815;51.618;0.336;2022-12-10T10:37:58;100251.53;;;1.21;49.05
63663;BME280;49815;51.618;0.336;2022-12-10T10:40:23;100250.27;;;0.80;49.50
63663;BME280;49815;51.618;0.336;2022-12-10T10:42:47;100253.90;;;1.23;49.13
63663;BME280;49815;51.618;0.336;2022-12-10T10:50:06;100257.72;;;0.57;49.18
63663;BME280;49815;51.618;0.336;2022-12-10T10:52:36;100254.59;;;0.41;49.36
63663;BME280;49815;51.618;0.336;2022-12-10T10:54:55;100256.59;;;1.02;49.37
63663;BME280;49815;51.618;0.336;2022-12-10T10:57:24;100254.72;;;1.57;48.83
63663;BME280;49815;51.618;0.336;2022-12-10T10:59:45;100253.57;;;2.06;48.32
63663;BME280;49815;51.618;0.336;2022-12-10T11:02:21;100253.37;;;0.95;48.39
63663;BME280;49815;51.618;0.336;2022-12-10T11:04:44;100250.88;;;1.73;47.88
63663;BME280;49815;51.618;0.336;2022-12-10T11:07:04;100247.11;;;1.75;47.82
63663;BME280;49815;51.618;0.336;2022-12-10T11:09:30;100246.12;;;1.89;47.50
63663;BME280;49815;51.618;0.336;2022-12-10T11:12:00;100243.96;;;2.04;47.64
63663;BME280;49815;51.618;0.336;2022-12-10T11:14:25;100242.96;;;1.83;47.45
63663;BME280;49815;51.618;0.336;2022-12-10T11:16:43;100245.70;;;1.58;48.01
63663;BME280;49815;51.618;0.336;2022-12-10T11:19:18;100240.79;;;2.20;47.30
63663;BME280;49815;51.618;0.336;2022-12-10T11:21:35;100246.68;;;0.97;48.49
63663;BME280;49815;51.618;0.336;2022-12-10T11:24:00;100248.48;;;2.28;47.33
63663;BME280;49815;51.618;0.336;2022-12-10T11:26:40;100242.57;;;1.41;47.70
63663;BME280;49815;51.618;0.336;2022-12-10T11:28:59;100244.90;;;1.96;47.59
63663;BME280;49815;51.618;0.336;2022-12-10T11:31:27;100235.98;;;1.75;47.43
63663;BME280;49815;51.618;0.336;2022-12-10T11:33:44;100239.65;;;1.53;47.81
63663;BME280;49815;51.618;0.336;2022-12-10T11:36:13;100236.51;;;2.54;47.05
63663;BME280;49815;51.618;0.336;2022-12-10T11:38:37;100233.71;;;2.29;46.97
63663;BME280;49815;51.618;0.336;2022-12-10T11:41:03;100231.16;;;1.75;46.33
63663;BME280;49815;51.618;0.336;2022-12-10T11:43:32;100234.64;;;2.29;46.57
63663;BME280;49815;51.618;0.336;2022-12-10T11:45:56;100238.73;;;2.39;47.25
63663;BME280;49815;51.618;0.336;2022-12-10T11:48:20;100238.35;;;2.66;46.70
63663;BME280;49815;51.618;0.336;2022-12-10T11:50:43;100241.45;;;2.14;47.01
63663;BME280;49815;51.618;0.336;2022-12-10T11:53:16;100242.60;;;1.90;47.53
63663;BME280;49815;51.618;0.336;2022-12-10T11:55:37;100243.18;;;1.67;47.18
63663;BME280;49815;51.618;0.336;2022-12-10T11:58:04;100241.79;;;1.56;47.21
63663;BME280;49815;51.618;0.336;2022-12-10T12:00:22;100245.11;;;2.30;47.02
63663;BME280;49815;51.618;0.336;2022-12-10T12:03:04;100239.21;;;1.98;47.74
63663;BME280;49815;51.618;0.336;2022-12-10T12:07:42;100233.06;;;1.90;46.95
63663;BME280;49815;51.618;0.336;2022-12-10T12:10:17;100231.43;;;2.43;46.33
63663;BME280;49815;51.618;0.336;2022-12-10T12:12:32;100228.42;;;2.70;46.73
63663;BME280;49815;51.618;0.336;2022-12-10T12:14:54;100231.26;;;3.60;45.64
63663;BME280;49815;51.618;0.336;2022-12-10T12:17:25;100234.22;;;2.33;46.16
63663;BME280;49815;51.618;0.336;2022-12-10T12:19:44;100233.96;;;2.21;45.87
63663;BME280;49815;51.618;0.336;2022-12-10T12:22:14;100235.86;;;2.51;45.07
63663;BME280;49815;51.618;0.336;2022-12-10T12:24:35;100230.72;;;3.11;44.88
63663;BME280;49815;51.618;0.336;2022-12-10T12:27:02;100230.34;;;3.35;44.96
63663;BME280;49815;51.618;0.336;2022-12-10T12:29:27;100227.58;;;2.09;45.87
63663;BME280;49815;51.618;0.336;2022-12-10T12:31:56;100228.77;;;2.60;45.31
63663;BME280;49815;51.618;0.336;2022-12-10T12:34:18;100227.13;;;2.96;44.68
63663;BME280;49815;51.618;0.336;2022-12-10T12:36:41;100227.81;;;2.57;45.66
63663;BME280;49815;51.618;0.336;2022-12-10T12:39:11;100225.90;;;3.46;45.41
63663;BME280;49815;51.618;0.336;2022-12-10T12:46:30;100225.30;;;2.41;45.91
63663;BME280;49815;51.618;0.336;2022-12-10T12:48:53;100226.96;;;3.13;45.19
63663;BME280;49815;51.618;0.336;2022-12-10T12:51:17;100230.14;;;3.62;45.13
63663;BME280;49815;51.618;0.336;2022-12-10T12:53:37;100228.57;;;3.40;45.47
63663;BME280;49815;51.618;0.336;2022-12-10T12:56:07;100227.85;;;3.12;45.87
63663;BME280;49815;51.618;0.336;2022-12-10T12:58:36;100225.34;;;2.56;45.79
63663;BME280;49815;51.618;0.336;2022-12-10T13:00:57;100225.00;;;3.76;45.12